GIA8099 WIMM-OEMA
Flight info
| Callsign | GIA8099 |
|---|---|
| Flight time | N/A |
| Altitude | 34000 |
| Route | DUDEN DCT BULVA M300 LOTAV N569 TOKRA/N0471F280 Y511 ELONU |
| Aircraft | B77W/H-SDE1E2E3FGHIJ2J3J4J5M1RWXY/LB1D1 |
Departure
| Time | 2026-04-24 10:18 |
|---|---|
| Airport | Kualanamu International Airport (WIMM) |
Arrival
| Time | N/A |
|---|---|
| Airport | Prince Mohammad Bin Abdulaziz Airport (OEMA) |
| Time | Latitude | Longitude | Altitude | Speed | Heading |
|---|---|---|---|---|---|
| 2026-04-24 09:44 | 3.63865 | 98.87868 | 45 ft | 0 kts | 224° |
| 2026-04-24 10:09 | 3.63874 | 98.87876 | 43 ft | 4 kts | 229° |
| 2026-04-24 10:09 | 3.63890 | 98.87898 | 45 ft | 4 kts | 244° |
| 2026-04-24 10:09 | 3.63899 | 98.87923 | 45 ft | 4 kts | 258° |
| 2026-04-24 10:09 | 3.63903 | 98.87943 | 42 ft | 1 kts | 257° |
| 2026-04-24 10:10 | 3.63904 | 98.87946 | 45 ft | 0 kts | 257° |
| 2026-04-24 10:12 | 3.63879 | 98.87975 | 48 ft | 0 kts | 314° |
| 2026-04-24 10:12 | 3.63875 | 98.87971 | 48 ft | 0 kts | 314° |
| 2026-04-24 10:13 | 3.63880 | 98.87969 | 51 ft | 3 kts | 334° |
| 2026-04-24 10:13 | 3.63950 | 98.87992 | 45 ft | 16 kts | 40° |
| 2026-04-24 10:14 | 3.64064 | 98.88106 | 45 ft | 17 kts | 43° |
| 2026-04-24 10:14 | 3.64113 | 98.88133 | 45 ft | 16 kts | 7° |
| 2026-04-24 10:14 | 3.64226 | 98.88053 | 45 ft | 25 kts | 316° |
| 2026-04-24 10:14 | 3.64282 | 98.87952 | 45 ft | 18 kts | 254° |
| 2026-04-24 10:15 | 3.64174 | 98.87824 | 44 ft | 32 kts | 227° |
| 2026-04-24 10:15 | 3.63999 | 98.87653 | 44 ft | 41 kts | 224° |
| 2026-04-24 10:15 | 3.63844 | 98.87462 | 44 ft | 23 kts | 269° |
| 2026-04-24 10:15 | 3.63778 | 98.87306 | 44 ft | 33 kts | 224° |
| 2026-04-24 10:16 | 3.63574 | 98.87102 | 44 ft | 50 kts | 225° |
| 2026-04-24 10:16 | 3.63364 | 98.86893 | 44 ft | 40 kts | 225° |
| 2026-04-24 10:16 | 3.63150 | 98.86680 | 43 ft | 48 kts | 225° |
| 2026-04-24 10:16 | 3.62933 | 98.86465 | 44 ft | 45 kts | 225° |
| 2026-04-24 10:17 | 3.62725 | 98.86256 | 44 ft | 41 kts | 224° |
| 2026-04-24 10:17 | 3.62549 | 98.86082 | 44 ft | 28 kts | 225° |
| 2026-04-24 10:17 | 3.62527 | 98.85945 | 42 ft | 19 kts | 300° |
| 2026-04-24 10:17 | 3.62679 | 98.85952 | 42 ft | 34 kts | 44° |
| 2026-04-24 10:18 | 3.63084 | 98.86364 | 42 ft | 139 kts | 43° |
| 2026-04-24 10:18 | 3.63945 | 98.87237 | 570 ft | 199 kts | 45° |
| 2026-04-24 10:18 | 3.64904 | 98.88174 | 1741 ft | 183 kts | 44° |
| 2026-04-24 10:18 | 3.66010 | 98.88827 | 2279 ft | 200 kts | 13° |
| 2026-04-24 10:19 | 3.67450 | 98.88621 | 2492 ft | 228 kts | 333° |
| 2026-04-24 10:19 | 3.68671 | 98.87469 | 2701 ft | 258 kts | 309° |
| 2026-04-24 10:19 | 3.69812 | 98.86027 | 3394 ft | 268 kts | 308° |
| 2026-04-24 10:19 | 3.70975 | 98.84565 | 4241 ft | 274 kts | 309° |
| 2026-04-24 10:20 | 3.72176 | 98.83071 | 5213 ft | 276 kts | 309° |
| 2026-04-24 10:20 | 3.73401 | 98.81563 | 6089 ft | 281 kts | 309° |
| 2026-04-24 10:20 | 3.74644 | 98.80044 | 6922 ft | 285 kts | 309° |
| 2026-04-24 10:20 | 3.75920 | 98.78492 | 7740 ft | 290 kts | 309° |
| 2026-04-24 10:21 | 3.77215 | 98.76925 | 8573 ft | 295 kts | 310° |
| 2026-04-24 10:21 | 3.78537 | 98.75330 | 9341 ft | 301 kts | 310° |
| 2026-04-24 10:21 | 3.79887 | 98.73704 | 10079 ft | 308 kts | 310° |
| 2026-04-24 10:21 | 3.81300 | 98.72002 | 10455 ft | 329 kts | 309° |
| 2026-04-24 10:22 | 3.82575 | 98.70026 | 10619 ft | 351 kts | 293° |
| 2026-04-24 10:22 | 3.83486 | 98.67667 | 10789 ft | 377 kts | 289° |
| 2026-04-24 10:22 | 3.84092 | 98.65999 | 11073 ft | 388 kts | 289° |
| 2026-04-24 10:22 | 3.85346 | 98.62588 | 11990 ft | 401 kts | 290° |
| 2026-04-24 10:23 | 3.86331 | 98.59963 | 12892 ft | 403 kts | 290° |
| 2026-04-24 10:23 | 3.87338 | 98.57319 | 13733 ft | 409 kts | 290° |
| 2026-04-24 10:23 | 3.88364 | 98.54649 | 14456 ft | 414 kts | 291° |
| 2026-04-24 10:23 | 3.89411 | 98.51941 | 15146 ft | 419 kts | 291° |
| 2026-04-24 10:24 | 3.90474 | 98.49199 | 15869 ft | 425 kts | 291° |
| 2026-04-24 10:24 | 3.91200 | 98.47327 | 16311 ft | 429 kts | 291° |
| 2026-04-24 10:24 | 3.92276 | 98.44548 | 16965 ft | 435 kts | 291° |
| 2026-04-24 10:24 | 3.93389 | 98.41671 | 17653 ft | 440 kts | 291° |
| 2026-04-24 10:25 | 3.94502 | 98.38793 | 18257 ft | 446 kts | 291° |
| 2026-04-24 10:25 | 3.95624 | 98.35887 | 18852 ft | 449 kts | 291° |
| 2026-04-24 10:25 | 3.96755 | 98.32960 | 19498 ft | 452 kts | 291° |
| 2026-04-24 10:25 | 3.97880 | 98.30052 | 20121 ft | 454 kts | 291° |
| 2026-04-24 10:26 | 3.99025 | 98.27095 | 20740 ft | 457 kts | 291° |
| 2026-04-24 10:26 | 4.00183 | 98.24110 | 21337 ft | 461 kts | 291° |
| 2026-04-24 10:26 | 4.01345 | 98.21115 | 21906 ft | 464 kts | 291° |
| 2026-04-24 10:26 | 4.02520 | 98.18081 | 22500 ft | 468 kts | 290° |
| 2026-04-24 10:27 | 4.03705 | 98.15018 | 23064 ft | 471 kts | 290° |
| 2026-04-24 10:27 | 4.04891 | 98.11950 | 23564 ft | 475 kts | 290° |
| 2026-04-24 10:27 | 4.06087 | 98.08852 | 24015 ft | 478 kts | 290° |
| 2026-04-24 10:27 | 4.07292 | 98.05738 | 24495 ft | 480 kts | 290° |
| 2026-04-24 10:28 | 4.08444 | 98.02599 | 24911 ft | 478 kts | 285° |
| 2026-04-24 10:28 | 4.08869 | 97.99307 | 25202 ft | 482 kts | 266° |
| 2026-04-24 10:28 | 4.08250 | 97.96012 | 25603 ft | 481 kts | 250° |
| 2026-04-24 10:28 | 4.06833 | 97.92992 | 26133 ft | 479 kts | 236° |
| 2026-04-24 10:29 | 4.04786 | 97.90367 | 26590 ft | 479 kts | 228° |
| 2026-04-24 10:29 | 4.02577 | 97.87850 | 27006 ft | 482 kts | 227° |
| 2026-04-24 10:29 | 4.00384 | 97.85351 | 27373 ft | 486 kts | 228° |
| 2026-04-24 10:29 | 3.98140 | 97.82745 | 27765 ft | 489 kts | 229° |
| 2026-04-24 10:30 | 3.95944 | 97.80142 | 28160 ft | 491 kts | 229° |
| 2026-04-24 10:30 | 3.93751 | 97.77519 | 28549 ft | 493 kts | 229° |
| 2026-04-24 10:30 | 3.91690 | 97.74827 | 28800 ft | 495 kts | 238° |
| 2026-04-24 10:30 | 3.90290 | 97.71641 | 29049 ft | 502 kts | 254° |
| 2026-04-24 10:31 | 3.89829 | 97.68178 | 29331 ft | 501 kts | 266° |
| 2026-04-24 10:31 | 3.89677 | 97.64676 | 29586 ft | 505 kts | 266° |
| 2026-04-24 10:31 | 3.89466 | 97.61157 | 29971 ft | 505 kts | 265° |
| 2026-04-24 10:31 | 3.89214 | 97.57654 | 30411 ft | 503 kts | 264° |
| 2026-04-24 10:32 | 3.88940 | 97.54166 | 30858 ft | 501 kts | 264° |
| 2026-04-24 10:32 | 3.88656 | 97.50684 | 31271 ft | 500 kts | 264° |
| 2026-04-24 10:32 | 3.88373 | 97.47258 | 31670 ft | 500 kts | 264° |
| 2026-04-24 10:32 | 3.88088 | 97.43801 | 32060 ft | 500 kts | 264° |
| 2026-04-24 10:33 | 3.87805 | 97.40329 | 32447 ft | 499 kts | 264° |
| 2026-04-24 10:33 | 3.87524 | 97.36857 | 32827 ft | 499 kts | 265° |
| 2026-04-24 10:33 | 3.87244 | 97.33392 | 33224 ft | 499 kts | 265° |
| 2026-04-24 10:33 | 3.86965 | 97.29934 | 33607 ft | 498 kts | 265° |
| 2026-04-24 10:34 | 3.86687 | 97.26475 | 33878 ft | 500 kts | 265° |
| 2026-04-24 10:34 | 3.86124 | 97.19490 | 33912 ft | 502 kts | 265° |
| 2026-04-24 10:35 | 3.85565 | 97.12574 | 33907 ft | 497 kts | 265° |
| 2026-04-24 10:35 | 3.85011 | 97.05718 | 33922 ft | 496 kts | 265° |
| 2026-04-24 10:36 | 3.84453 | 96.98825 | 33885 ft | 497 kts | 265° |
| 2026-04-24 10:36 | 3.83894 | 96.91934 | 33893 ft | 497 kts | 264° |
| 2026-04-24 10:37 | 3.83333 | 96.85017 | 33891 ft | 498 kts | 265° |
| 2026-04-24 10:37 | 3.82772 | 96.78111 | 33873 ft | 496 kts | 264° |
| 2026-04-24 10:38 | 3.82215 | 96.71267 | 33850 ft | 495 kts | 264° |
| 2026-04-24 10:38 | 3.81656 | 96.64402 | 33839 ft | 493 kts | 264° |
| 2026-04-24 10:39 | 3.81099 | 96.57572 | 33834 ft | 491 kts | 264° |
| 2026-04-24 10:39 | 3.80540 | 96.50749 | 33814 ft | 491 kts | 264° |
| 2026-04-24 10:40 | 3.80376 | 96.43921 | 33803 ft | 492 kts | 281° |
| 2026-04-24 10:40 | 3.82411 | 96.37412 | 33819 ft | 490 kts | 288° |
| 2026-04-24 10:41 | 3.84590 | 96.30972 | 33815 ft | 492 kts | 287° |
| 2026-04-24 10:41 | 3.86706 | 96.24437 | 33810 ft | 494 kts | 287° |
| 2026-04-24 10:42 | 3.88772 | 96.17867 | 33807 ft | 495 kts | 287° |
| 2026-04-24 10:42 | 3.90829 | 96.11277 | 33808 ft | 495 kts | 287° |
| 2026-04-24 10:43 | 3.92888 | 96.04691 | 33806 ft | 495 kts | 287° |
| 2026-04-24 10:43 | 3.94944 | 95.98127 | 33808 ft | 494 kts | 287° |
| 2026-04-24 10:44 | 3.96999 | 95.91567 | 33810 ft | 493 kts | 287° |
| 2026-04-24 10:44 | 3.99048 | 95.85027 | 33809 ft | 492 kts | 287° |
| 2026-04-24 10:45 | 4.01082 | 95.78530 | 33796 ft | 492 kts | 287° |
| 2026-04-24 10:45 | 4.03124 | 95.72004 | 33809 ft | 491 kts | 287° |
| 2026-04-24 10:46 | 4.05166 | 95.65476 | 33809 ft | 492 kts | 287° |
| 2026-04-24 10:46 | 4.07215 | 95.58926 | 33805 ft | 493 kts | 287° |
| 2026-04-24 10:47 | 4.09267 | 95.52360 | 33805 ft | 494 kts | 287° |
| 2026-04-24 10:47 | 4.11325 | 95.45777 | 33797 ft | 495 kts | 287° |
| 2026-04-24 10:48 | 4.13383 | 95.39189 | 33803 ft | 496 kts | 287° |
| 2026-04-24 10:48 | 4.15443 | 95.32595 | 33804 ft | 496 kts | 287° |
| 2026-04-24 10:49 | 4.17506 | 95.25990 | 33809 ft | 496 kts | 287° |
| 2026-04-24 10:49 | 4.19552 | 95.19436 | 33791 ft | 497 kts | 287° |
| 2026-04-24 10:50 | 4.21614 | 95.12826 | 33808 ft | 497 kts | 287° |
| 2026-04-24 10:50 | 4.23676 | 95.06217 | 33808 ft | 497 kts | 287° |
| 2026-04-24 10:51 | 4.25737 | 94.99607 | 33808 ft | 497 kts | 287° |
| 2026-04-24 10:51 | 4.27796 | 94.93004 | 33800 ft | 497 kts | 287° |
| 2026-04-24 10:52 | 4.29857 | 94.86391 | 33815 ft | 497 kts | 287° |
| 2026-04-24 10:52 | 4.31913 | 94.79789 | 33812 ft | 497 kts | 287° |
| 2026-04-24 10:53 | 4.33973 | 94.73177 | 33799 ft | 497 kts | 287° |
| 2026-04-24 10:53 | 4.36015 | 94.66616 | 33811 ft | 497 kts | 286° |
| 2026-04-24 10:54 | 4.38072 | 94.60007 | 33808 ft | 497 kts | 286° |
| 2026-04-24 10:54 | 4.40130 | 94.53392 | 33809 ft | 496 kts | 286° |
| 2026-04-24 10:55 | 4.42181 | 94.46796 | 33812 ft | 496 kts | 286° |
| 2026-04-24 10:55 | 4.44235 | 94.40190 | 33813 ft | 495 kts | 286° |
| 2026-04-24 10:56 | 4.46285 | 94.33592 | 33811 ft | 495 kts | 286° |
| 2026-04-24 10:56 | 4.48325 | 94.27024 | 33800 ft | 495 kts | 286° |
| 2026-04-24 10:57 | 4.50371 | 94.20432 | 33797 ft | 495 kts | 286° |
| 2026-04-24 10:57 | 4.52412 | 94.13851 | 33811 ft | 495 kts | 287° |
| 2026-04-24 10:58 | 4.54453 | 94.07266 | 33812 ft | 494 kts | 287° |
| 2026-04-24 10:58 | 4.56485 | 94.00712 | 33819 ft | 494 kts | 287° |
| 2026-04-24 10:59 | 4.58458 | 93.94107 | 33816 ft | 495 kts | 286° |
| 2026-04-24 10:59 | 4.60356 | 93.87475 | 33817 ft | 495 kts | 286° |
| 2026-04-24 11:00 | 4.62258 | 93.80831 | 33803 ft | 496 kts | 286° |
| 2026-04-24 11:00 | 4.64178 | 93.74164 | 33820 ft | 499 kts | 286° |
| 2026-04-24 11:01 | 4.66115 | 93.67457 | 33822 ft | 502 kts | 286° |
| 2026-04-24 11:01 | 4.68049 | 93.60756 | 33815 ft | 504 kts | 286° |
| 2026-04-24 11:02 | 4.70011 | 93.53949 | 33804 ft | 505 kts | 286° |
| 2026-04-24 11:02 | 4.71943 | 93.47239 | 33802 ft | 505 kts | 286° |
| 2026-04-24 11:03 | 4.73887 | 93.40481 | 33812 ft | 504 kts | 286° |
| 2026-04-24 11:03 | 4.75841 | 93.33726 | 33810 ft | 502 kts | 287° |
| 2026-04-24 11:04 | 4.77821 | 93.27013 | 33818 ft | 502 kts | 287° |
| 2026-04-24 11:04 | 4.79802 | 93.20310 | 33818 ft | 501 kts | 287° |
| 2026-04-24 11:05 | 4.81761 | 93.13654 | 33806 ft | 501 kts | 287° |
| 2026-04-24 11:05 | 4.83729 | 93.06950 | 33819 ft | 501 kts | 287° |
| 2026-04-24 11:06 | 4.85698 | 93.00238 | 33810 ft | 501 kts | 287° |
| 2026-04-24 11:06 | 4.87671 | 92.93510 | 33814 ft | 502 kts | 287° |
| 2026-04-24 11:07 | 4.90618 | 92.83459 | 33818 ft | 503 kts | 287° |
| 2026-04-24 11:07 | 4.92592 | 92.76722 | 33818 ft | 504 kts | 287° |
| 2026-04-24 11:08 | 4.94566 | 92.69980 | 33815 ft | 504 kts | 287° |
| 2026-04-24 11:08 | 4.96208 | 92.64368 | 33804 ft | 504 kts | 287° |
| 2026-04-24 11:09 | 4.98521 | 92.56467 | 33826 ft | 505 kts | 287° |
| 2026-04-24 11:09 | 5.00500 | 92.49703 | 33819 ft | 506 kts | 287° |
| 2026-04-24 11:10 | 5.02483 | 92.42921 | 33819 ft | 506 kts | 287° |
| 2026-04-24 11:10 | 5.04450 | 92.36189 | 33817 ft | 506 kts | 287° |
| 2026-04-24 11:11 | 5.06430 | 92.29408 | 33807 ft | 506 kts | 287° |
| 2026-04-24 11:11 | 5.08077 | 92.23766 | 33816 ft | 506 kts | 287° |
| 2026-04-24 11:12 | 5.10056 | 92.16987 | 33819 ft | 506 kts | 287° |
| 2026-04-24 11:12 | 5.12032 | 92.10206 | 33821 ft | 506 kts | 287° |
| 2026-04-24 11:13 | 5.14006 | 92.03426 | 33821 ft | 506 kts | 287° |
| 2026-04-24 11:13 | 5.16020 | 91.96653 | 33824 ft | 506 kts | 288° |
| 2026-04-24 11:14 | 5.18210 | 91.89952 | 33825 ft | 506 kts | 289° |
| 2026-04-24 11:14 | 5.20434 | 91.83261 | 33809 ft | 505 kts | 289° |
| 2026-04-24 11:15 | 5.22625 | 91.76579 | 33821 ft | 504 kts | 289° |
| 2026-04-24 11:15 | 5.24800 | 91.69881 | 33820 ft | 504 kts | 289° |